Time;durP1;ratioP1;P1;durP2;ratioP2;P2;SDS_P1;SDS_P2;PMS_P1;PMS_P2;Temp;Humidity;BMP_temperature;BMP_pressure;BME280_temperature;BME280_humidity;BME280_pressure;Samples;Min_cycle;Max_cycle;Signal;HPM_P1;HPM_P2
2021/06/21 00:01:55;;;;;;;;;;;21.70;69.50;;;;;;5035967;28;1722;-65
2021/06/21 00:04:20;;;;;;;;;;;21.70;69.50;;;;;;5053718;28;1906;-65
2021/06/21 00:06:46;;;;;;;;;;;21.70;69.50;;;;;;5054192;28;1567;-66
2021/06/21 00:09:11;;;;;;;;;;;21.70;69.50;;;;;;5054305;28;1578;-65
2021/06/21 00:11:37;;;;;;;;;;;21.70;69.50;;;;;;5054335;28;1398;-65
2021/06/21 00:14:02;;;;;;;;;;;21.70;69.50;;;;;;5054345;28;1372;-66
2021/06/21 00:16:27;;;;;;;;;;;21.70;69.50;;;;;;5053979;28;1210;-64
2021/06/21 00:18:53;;;;;;;;;;;21.70;69.50;;;;;;5054177;28;1354;-64
2021/06/21 00:21:18;;;;;;;;;;;21.70;69.50;;;;;;5053611;28;1708;-64
2021/06/21 00:23:44;;;;;;;;;;;21.70;69.50;;;;;;5053281;28;1957;-64
2021/06/21 00:26:09;;;;;;;;;;;21.70;69.50;;;;;;5054003;28;1499;-64
2021/06/21 00:28:35;;;;;;;;;;;21.70;69.50;;;;;;5053889;28;1411;-67
2021/06/21 00:31:00;;;;;;;;;;;21.70;69.50;;;;;;5053988;28;1706;-64
2021/06/21 00:33:26;;;;;;;;;;;21.70;69.50;;;;;;5053020;28;1590;-64
2021/06/21 00:35:51;;;;;;;;;;;21.70;69.50;;;;;;5053767;28;1685;-65
2021/06/21 00:38:16;;;;;;;;;;;21.70;69.50;;;;;;5053650;28;967;-64
2021/06/21 00:40:42;;;;;;;;;;;21.70;69.50;;;;;;5053152;28;1247;-65
2021/06/21 00:43:07;;;;;;;;;;;21.70;69.50;;;;;;5052716;28;1953;-67
2021/06/21 00:45:33;;;;;;;;;;;21.70;69.50;;;;;;5053825;28;1633;-65
2021/06/21 00:47:58;;;;;;;;;;;21.70;69.50;;;;;;5053438;28;1662;-64
2021/06/21 00:50:25;;;;;;;;;;;21.70;69.50;;;;;;5053114;28;1699;-66
2021/06/21 00:52:52;;;;;;;;;;;21.70;69.50;;;;;;5052630;28;1655;-65
2021/06/21 00:55:17;;;;;;;;;;;21.70;69.50;;;;;;5051917;28;1699;-64
2021/06/21 00:57:43;;;;;;;;;;;21.70;69.50;;;;;;5052712;28;1360;-65
2021/06/21 01:00:12;;;;;;;;;;;21.70;69.50;;;;;;5053041;28;1656;-66
2021/06/21 01:02:37;;;;;;;;;;;21.70;69.50;;;;;;5053557;28;1616;-64
2021/06/21 01:05:06;;;;;;;;;;;21.70;69.50;;;;;;5052505;28;1902;-65
2021/06/21 01:07:32;;;;;;;;;;;21.70;69.50;;;;;;5053331;28;1580;-65
2021/06/21 01:09:57;;;;;;;;;;;21.70;69.50;;;;;;5052818;28;1750;-65
2021/06/21 01:12:32;;;;;;;;;;;21.70;69.40;;;;;;5051905;28;1406;-65
2021/06/21 01:14:58;;;;;;;;;;;21.70;69.50;;;;;;5052210;28;1717;-65
2021/06/21 01:17:24;;;;;;;;;;;21.70;69.50;;;;;;5052023;28;1483;-64
2021/06/21 01:19:59;;;;;;;;;;;21.70;69.50;;;;;;5051568;28;1857;-65
2021/06/21 01:22:34;;;;;;;;;;;21.70;69.50;;;;;;5047111;28;1389;-65
2021/06/21 01:25:29;;;;;;;;;;;21.70;69.50;;;;;;5051801;28;1902;-66
2021/06/21 01:28:04;;;;;;;;;;;21.70;69.40;;;;;;4974417;28;1681;-64
2021/06/21 01:30:36;;;;;;;;;;;21.70;69.40;;;;;;5045183;28;1641;-65
2021/06/21 01:33:02;;;;;;;;;;;21.70;69.50;;;;;;5052097;28;1353;-64
2021/06/21 01:35:29;;;;;;;;;;;21.70;69.50;;;;;;5051163;28;1721;-66
2021/06/21 01:37:55;;;;;;;;;;;21.70;69.50;;;;;;5052814;28;1376;-65
2021/06/21 01:40:20;;;;;;;;;;;21.70;69.40;;;;;;5050682;28;1747;-65
2021/06/21 01:42:47;;;;;;;;;;;21.80;69.50;;;;;;5051605;28;1894;-64
2021/06/21 01:45:13;;;;;;;;;;;21.70;69.40;;;;;;5051405;28;1858;-64
2021/06/21 01:47:38;;;;;;;;;;;21.70;69.50;;;;;;5052722;28;1350;-64
2021/06/21 01:50:04;;;;;;;;;;;21.70;69.40;;;;;;5069807;22;3703;-76
2021/06/21 01:52:31;;;;;;;;;;;21.70;69.40;;;;;;5010663;28;1511;-78
2021/06/21 01:54:57;;;;;;;;;;;21.80;69.50;;;;;;5006177;28;1285;-79
2021/06/21 01:57:24;;;;;;;;;;;21.70;69.50;;;;;;4963718;28;1273;-75
2021/06/21 01:59:50;;;;;;;;;;;21.70;69.40;;;;;;4980194;28;1116;-78
2021/06/21 02:02:15;;;;;;;;;;;21.70;69.40;;;;;;4963586;28;1331;-79
2021/06/21 02:04:40;;;;;;;;;;;21.70;69.40;;;;;;4996798;28;1903;-76
2021/06/21 02:07:07;;;;;;;;;;;21.70;69.40;;;;;;4964495;28;1121;-77
2021/06/21 02:09:32;;;;;;;;;;;21.80;69.50;;;;;;4981411;28;1262;-77
2021/06/21 02:11:58;;;;;;;;;;;21.70;69.40;;;;;;4980862;28;1144;-78
2021/06/21 02:14:29;;;;;;;;;;;21.80;69.50;;;;;;4977687;28;1283;-76
2021/06/21 02:16:55;;;;;;;;;;;21.70;69.40;;;;;;4985993;28;1330;-79
2021/06/21 02:19:23;;;;;;;;;;;21.70;69.50;;;;;;4995707;28;1280;-78
2021/06/21 02:21:48;;;;;;;;;;;21.70;69.50;;;;;;4977146;28;1374;-77
2021/06/21 02:24:14;;;;;;;;;;;21.80;69.50;;;;;;5011456;28;1902;-77
2021/06/21 02:26:40;;;;;;;;;;;21.70;69.50;;;;;;4993574;28;1815;-77
2021/06/21 02:29:05;;;;;;;;;;;21.70;69.50;;;;;;4968699;28;1522;-76
2021/06/21 02:31:31;;;;;;;;;;;21.70;69.50;;;;;;4985244;28;1391;-78
2021/06/21 02:33:56;;;;;;;;;;;21.70;69.50;;;;;;4984155;28;1274;-78
2021/06/21 02:36:21;;;;;;;;;;;21.80;69.60;;;;;;4977516;28;1328;-75
2021/06/21 02:38:47;;;;;;;;;;;21.70;69.60;;;;;;4988943;28;1317;-78
2021/06/21 02:41:12;;;;;;;;;;;21.80;69.60;;;;;;4984494;28;1428;-75
2021/06/21 02:43:38;;;;;;;;;;;21.80;69.70;;;;;;5002225;28;1926;-77
2021/06/21 02:46:03;;;;;;;;;;;21.80;69.50;;;;;;4993218;28;1874;-78
2021/06/21 02:48:29;;;;;;;;;;;21.70;69.40;;;;;;5011173;28;1190;-78
2021/06/21 02:50:55;;;;;;;;;;;21.80;69.60;;;;;;4964330;28;1291;-76
2021/06/21 02:53:40;;;;;;;;;;;21.80;69.60;;;;;;4961706;28;1222;-77
2021/06/21 02:56:15;;;;;;;;;;;21.70;69.60;;;;;;4960831;28;1304;-78
2021/06/21 02:58:41;;;;;;;;;;;21.80;69.60;;;;;;5008543;28;1189;-78
2021/06/21 03:01:06;;;;;;;;;;;21.80;69.60;;;;;;4993638;28;1180;-77
2021/06/21 03:03:35;;;;;;;;;;;21.80;69.60;;;;;;4994445;28;1898;-76
2021/06/21 03:06:01;;;;;;;;;;;21.70;69.50;;;;;;4958557;28;1291;-76
2021/06/21 03:08:27;;;;;;;;;;;21.80;69.60;;;;;;4995287;28;1145;-77
2021/06/21 03:10:53;;;;;;;;;;;21.80;69.60;;;;;;4994795;28;1335;-78
2021/06/21 03:13:19;;;;;;;;;;;21.80;69.60;;;;;;4964555;28;1304;-77
2021/06/21 03:15:44;;;;;;;;;;;21.80;69.60;;;;;;4992578;28;1456;-78
2021/06/21 03:18:10;;;;;;;;;;;21.80;69.60;;;;;;4997806;28;1183;-77
2021/06/21 03:20:35;;;;;;;;;;;21.80;69.60;;;;;;5011458;28;1088;-77
2021/06/21 03:23:01;;;;;;;;;;;21.70;69.50;;;;;;5016167;28;1938;-77
2021/06/21 03:25:27;;;;;;;;;;;21.80;69.60;;;;;;4999661;28;1300;-77
2021/06/21 03:27:52;;;;;;;;;;;21.70;69.50;;;;;;5000380;28;1185;-77
2021/06/21 03:30:18;;;;;;;;;;;21.70;69.50;;;;;;4983515;28;1061;-77
2021/06/21 03:32:45;;;;;;;;;;;21.80;69.60;;;;;;4967757;28;1171;-78
2021/06/21 03:35:11;;;;;;;;;;;21.70;69.50;;;;;;4968283;28;1570;-77
2021/06/21 03:37:37;;;;;;;;;;;21.70;69.50;;;;;;4967977;28;1168;-78
2021/06/21 03:40:03;;;;;;;;;;;21.80;69.60;;;;;;4968116;28;1169;-76
2021/06/21 03:42:28;;;;;;;;;;;21.80;69.60;;;;;;4999740;28;1169;-77
2021/06/21 03:44:54;;;;;;;;;;;21.80;69.60;;;;;;4964298;28;1978;-77
2021/06/21 03:47:19;;;;;;;;;;;21.80;69.60;;;;;;4947499;28;1086;-78
2021/06/21 03:49:46;;;;;;;;;;;21.80;69.60;;;;;;4993579;28;1193;-77
2021/06/21 03:52:11;;;;;;;;;;;21.70;69.50;;;;;;4999670;28;1197;-77
2021/06/21 03:54:36;;;;;;;;;;;21.70;69.50;;;;;;4999577;28;1305;-76
2021/06/21 03:57:03;;;;;;;;;;;21.70;69.50;;;;;;4982859;28;1273;-78
2021/06/21 03:59:28;;;;;;;;;;;21.80;69.60;;;;;;5000307;28;1373;-77
2021/06/21 04:01:54;;;;;;;;;;;21.70;69.50;;;;;;5016419;28;1156;-79
2021/06/21 04:04:19;;;;;;;;;;;21.80;69.50;;;;;;4999014;28;1945;-76
2021/06/21 04:06:45;;;;;;;;;;;21.70;69.50;;;;;;4967189;28;1173;-78
2021/06/21 04:09:11;;;;;;;;;;;21.70;69.50;;;;;;4999259;28;1069;-78
2021/06/21 04:11:37;;;;;;;;;;;21.80;69.50;;;;;;4999645;28;1216;-77
2021/06/21 04:14:02;;;;;;;;;;;21.80;69.60;;;;;;4999126;28;1305;-77
2021/06/21 04:16:28;;;;;;;;;;;21.80;69.60;;;;;;4986093;28;1328;-78
2021/06/21 04:18:53;;;;;;;;;;;21.80;69.60;;;;;;4998816;28;1212;-79
2021/06/21 04:21:23;;;;;;;;;;;21.80;69.60;;;;;;4999110;28;1474;-77
2021/06/21 04:23:49;;;;;;;;;;;21.80;69.60;;;;;;4962807;28;1945;-76
2021/06/21 04:26:14;;;;;;;;;;;21.80;69.60;;;;;;4998572;28;1177;-77
2021/06/21 04:28:40;;;;;;;;;;;21.80;69.60;;;;;;4999503;28;1144;-76
2021/06/21 04:31:05;;;;;;;;;;;21.80;69.60;;;;;;4997795;28;1173;-77
2021/06/21 04:33:31;;;;;;;;;;;21.70;69.50;;;;;;4999062;28;1429;-78
2021/06/21 04:35:56;;;;;;;;;;;21.80;69.60;;;;;;4982411;28;1299;-77
2021/06/21 04:38:23;;;;;;;;;;;21.70;69.50;;;;;;4999319;28;1144;-79
2021/06/21 04:40:48;;;;;;;;;;;21.70;69.50;;;;;;4998432;28;1447;-76
2021/06/21 04:43:14;;;;;;;;;;;21.70;69.50;;;;;;4963936;28;1902;-79
2021/06/21 04:45:40;;;;;;;;;;;21.70;69.50;;;;;;4947644;28;1331;-78
2021/06/21 04:48:06;;;;;;;;;;;21.80;69.50;;;;;;4991246;28;1307;-77
2021/06/21 04:50:31;;;;;;;;;;;21.70;69.50;;;;;;4966964;28;1187;-76
2021/06/21 04:52:57;;;;;;;;;;;21.80;69.60;;;;;;4966673;28;1185;-76
2021/06/21 04:55:25;;;;;;;;;;;21.80;69.50;;;;;;4966917;28;1295;-77
2021/06/21 04:57:50;;;;;;;;;;;21.80;69.50;;;;;;4999717;28;1184;-77
2021/06/21 05:00:17;;;;;;;;;;;21.80;69.60;;;;;;4999601;28;1285;-77
2021/06/21 05:02:43;;;;;;;;;;;21.80;69.50;;;;;;4966085;28;1214;-77
2021/06/21 05:05:09;;;;;;;;;;;21.80;69.50;;;;;;4965019;28;1910;-77
2021/06/21 05:07:34;;;;;;;;;;;21.80;69.50;;;;;;4965079;28;1332;-77
2021/06/21 05:10:00;;;;;;;;;;;21.80;69.50;;;;;;4998310;28;1279;-77
2021/06/21 05:12:25;;;;;;;;;;;21.80;69.50;;;;;;4966359;28;1149;-76
2021/06/21 05:14:51;;;;;;;;;;;21.80;69.50;;;;;;4982139;28;1265;-79
2021/06/21 05:17:16;;;;;;;;;;;21.80;70.30;;;;;;4998590;28;1076;-78
2021/06/21 05:19:43;;;;;;;;;;;21.80;69.50;;;;;;4967219;28;1169;-76
2021/06/21 05:22:09;;;;;;;;;;;21.80;69.50;;;;;;4991710;28;1270;-77
2021/06/21 05:24:34;;;;;;;;;;;21.80;69.50;;;;;;4960737;28;1993;-76
2021/06/21 05:26:59;;;;;;;;;;;21.80;69.50;;;;;;4994568;28;1275;-77
2021/06/21 05:29:25;;;;;;;;;;;21.80;69.50;;;;;;4978165;28;1452;-76
2021/06/21 05:31:50;;;;;;;;;;;21.80;69.70;;;;;;4977993;28;1542;-75
2021/06/21 05:34:16;;;;;;;;;;;21.80;69.60;;;;;;4992544;28;1448;-76
2021/06/21 05:36:42;;;;;;;;;;;21.80;69.60;;;;;;4962410;28;1379;-77
2021/06/21 05:39:07;;;;;;;;;;;21.80;69.60;;;;;;4977993;28;1456;-76
2021/06/21 05:41:33;;;;;;;;;;;21.80;69.50;;;;;;4964928;28;2878;-74
2021/06/21 05:43:58;;;;;;;;;;;21.80;69.50;;;;;;4985085;28;1899;-76
2021/06/21 05:46:23;;;;;;;;;;;21.80;69.60;;;;;;4990715;28;1546;-76
2021/06/21 05:48:49;;;;;;;;;;;21.80;69.60;;;;;;4976969;28;1450;-76
2021/06/21 05:51:14;;;;;;;;;;;21.80;69.60;;;;;;4987303;28;1265;-76
2021/06/21 05:53:40;;;;;;;;;;;21.80;69.50;;;;;;4989208;28;1052;-76
2021/06/21 05:56:05;;;;;;;;;;;21.80;69.60;;;;;;4975481;28;1253;-75
2021/06/21 05:58:30;;;;;;;;;;;21.80;69.50;;;;;;4957201;28;1141;-77
2021/06/21 06:00:56;;;;;;;;;;;21.80;69.50;;;;;;4982967;28;1129;-76
2021/06/21 06:03:21;;;;;;;;;;;21.80;69.50;;;;;;4975223;28;1898;-75
2021/06/21 06:05:47;;;;;;;;;;;21.80;69.60;;;;;;4949628;28;1292;-77
2021/06/21 06:08:12;;;;;;;;;;;21.80;69.60;;;;;;4976403;28;1177;-76
2021/06/21 06:10:38;;;;;;;;;;;21.80;69.60;;;;;;4959990;28;1170;-75
2021/06/21 06:13:04;;;;;;;;;;;21.80;69.60;;;;;;4975472;28;1202;-76
2021/06/21 06:15:30;;;;;;;;;;;21.80;69.60;;;;;;4993692;28;1211;-77
2021/06/21 06:17:55;;;;;;;;;;;21.80;69.70;;;;;;4991608;28;1277;-76
2021/06/21 06:20:21;;;;;;;;;;;21.80;69.60;;;;;;4990102;28;1212;-76
2021/06/21 06:22:46;;;;;;;;;;;21.80;69.70;;;;;;4991753;28;1280;-75
2021/06/21 06:25:12;;;;;;;;;;;21.80;69.70;;;;;;4956129;28;1898;-76
2021/06/21 06:27:38;;;;;;;;;;;21.80;69.60;;;;;;4972547;28;1174;-76
2021/06/21 06:30:04;;;;;;;;;;;21.80;69.60;;;;;;4956547;28;1237;-76
2021/06/21 06:32:29;;;;;;;;;;;21.80;69.60;;;;;;4952837;28;1202;-76
2021/06/21 06:34:58;;;;;;;;;;;21.80;69.60;;;;;;4965685;28;1382;-77
2021/06/21 06:37:23;;;;;;;;;;;21.80;69.60;;;;;;4975694;28;1188;-76
2021/06/21 06:39:49;;;;;;;;;;;21.80;69.60;;;;;;4974974;28;2942;-74
2021/06/21 06:42:14;;;;;;;;;;;21.80;69.60;;;;;;4985628;28;1237;-76
2021/06/21 06:44:40;;;;;;;;;;;21.80;69.60;;;;;;4960319;28;1955;-76
2021/06/21 06:47:06;;;;;;;;;;;21.80;69.60;;;;;;4990254;28;997;-75
2021/06/21 06:49:34;;;;;;;;;;;21.80;69.60;;;;;;4992721;28;1223;-76
2021/06/21 06:51:59;;;;;;;;;;;21.80;69.60;;;;;;4977114;28;1257;-76
2021/06/21 06:54:28;;;;;;;;;;;21.80;69.50;;;;;;4960243;28;1343;-77
2021/06/21 06:57:01;;;;;;;;;;;21.80;69.50;;;;;;4963594;28;1395;-78
2021/06/21 06:59:30;;;;;;;;;;;21.80;69.50;;;;;;4966326;28;1253;-77
2021/06/21 07:01:55;;;;;;;;;;;21.80;69.70;;;;;;4961843;28;1228;-78
2021/06/21 07:04:21;;;;;;;;;;;21.80;69.60;;;;;;4965752;28;1964;-78
2021/06/21 07:06:46;;;;;;;;;;;21.80;69.60;;;;;;4996534;28;1173;-78
2021/06/21 07:09:12;;;;;;;;;;;21.80;69.60;;;;;;4997913;28;1149;-78
2021/06/21 07:11:37;;;;;;;;;;;21.80;69.60;;;;;;4996640;28;1152;-76
2021/06/21 07:14:03;;;;;;;;;;;21.80;69.70;;;;;;4996376;28;1472;-77
2021/06/21 07:16:29;;;;;;;;;;;21.80;69.60;;;;;;4996478;28;1235;-78
2021/06/21 07:18:54;;;;;;;;;;;21.80;69.60;;;;;;4997203;28;1253;-75
2021/06/21 07:21:20;;;;;;;;;;;21.80;69.70;;;;;;4997075;28;1209;-78
2021/06/21 07:23:45;;;;;;;;;;;21.80;69.70;;;;;;4997044;28;1902;-77
2021/06/21 07:26:11;;;;;;;;;;;21.80;69.50;;;;;;4998328;28;1411;-77
2021/06/21 07:28:36;;;;;;;;;;;21.80;69.70;;;;;;4997970;28;1147;-78
2021/06/21 07:31:02;;;;;;;;;;;21.80;69.60;;;;;;4997125;28;1108;-77
2021/06/21 07:33:27;;;;;;;;;;;21.80;69.80;;;;;;4957932;28;1256;-77
2021/06/21 07:35:53;;;;;;;;;;;21.80;69.80;;;;;;4961254;28;1299;-76
2021/06/21 07:38:19;;;;;;;;;;;21.80;69.70;;;;;;4977743;28;1319;-77
2021/06/21 07:40:44;;;;;;;;;;;21.80;69.60;;;;;;4978846;28;1140;-78
2021/06/21 07:43:10;;;;;;;;;;;21.80;69.70;;;;;;4960933;28;1959;-77
2021/06/21 07:45:35;;;;;;;;;;;21.80;69.60;;;;;;4958975;28;1274;-77
2021/06/21 07:48:01;;;;;;;;;;;21.80;69.60;;;;;;4953758;28;1205;-77
2021/06/21 07:50:27;;;;;;;;;;;21.80;69.60;;;;;;5003451;23;1790;-63
2021/06/21 07:52:55;;;;;;;;;;;21.80;69.70;;;;;;5012373;28;909;-63
2021/06/21 07:55:24;;;;;;;;;;;21.80;69.70;;;;;;5015073;28;1115;-63
2021/06/21 07:57:50;;;;;;;;;;;21.80;69.70;;;;;;5015319;28;1135;-63
2021/06/21 08:00:18;;;;;;;;;;;21.80;69.80;;;;;;5014993;28;1275;-63
2021/06/21 08:02:43;;;;;;;;;;;21.80;69.80;;;;;;5014723;28;1921;-63
2021/06/21 08:05:09;;;;;;;;;;;21.80;69.80;;;;;;5012250;28;1961;-63
2021/06/21 08:07:34;;;;;;;;;;;21.80;69.80;;;;;;5017021;28;2288;-64
2021/06/21 08:09:59;;;;;;;;;;;21.80;69.80;;;;;;5021926;28;1680;-63
2021/06/21 08:12:25;;;;;;;;;;;21.80;69.80;;;;;;5024271;28;1627;-63
2021/06/21 08:14:50;;;;;;;;;;;21.80;69.80;;;;;;5023305;28;1763;-65
2021/06/21 08:17:16;;;;;;;;;;;21.80;70.50;;;;;;5009693;28;1632;-63
2021/06/21 08:19:41;;;;;;;;;;;21.80;69.80;;;;;;4994229;28;1424;-63
2021/06/21 08:22:07;;;;;;;;;;;21.80;69.80;;;;;;5005743;28;1418;-64
2021/06/21 08:24:32;;;;;;;;;;;21.80;69.80;;;;;;4993747;28;1910;-62
2021/06/21 08:27:01;;;;;;;;;;;21.80;69.80;;;;;;4999793;28;1687;-63
2021/06/21 08:29:27;;;;;;;;;;;21.80;69.90;;;;;;4995652;28;1413;-64
2021/06/21 08:31:52;;;;;;;;;;;21.80;69.90;;;;;;5006167;28;1398;-63
2021/06/21 08:34:18;;;;;;;;;;;21.80;69.90;;;;;;5013577;28;1229;-63
2021/06/21 08:36:43;;;;;;;;;;;21.80;69.90;;;;;;5014099;28;1442;-65
2021/06/21 08:39:09;;;;;;;;;;;21.80;70.00;;;;;;5014074;28;1406;-62
2021/06/21 08:41:36;;;;;;;;;;;21.80;70.00;;;;;;5012973;28;1695;-63
2021/06/21 08:44:01;;;;;;;;;;;21.80;70.00;;;;;;5012573;28;1894;-62
2021/06/21 08:46:27;;;;;;;;;;;21.80;70.00;;;;;;5013236;28;1705;-61
2021/06/21 08:48:55;;;;;;;;;;;21.80;70.00;;;;;;5013762;28;1658;-63
2021/06/21 08:51:21;;;;;;;;;;;21.80;69.90;;;;;;5014019;28;1437;-63
2021/06/21 08:53:46;;;;;;;;;;;21.80;70.00;;;;;;5011394;28;1666;-63
2021/06/21 08:56:12;;;;;;;;;;;21.80;69.90;;;;;;5014097;28;1611;-62
2021/06/21 08:58:38;;;;;;;;;;;21.90;69.90;;;;;;5013710;28;1660;-63
2021/06/21 09:01:03;;;;;;;;;;;21.90;69.90;;;;;;5012161;28;2134;-63
2021/06/21 09:03:30;;;;;;;;;;;21.80;69.90;;;;;;5007692;28;1914;-63
2021/06/21 09:05:56;;;;;;;;;;;21.80;69.90;;;;;;5010296;28;1234;-67
2021/06/21 09:08:21;;;;;;;;;;;21.90;70.00;;;;;;4994495;28;1131;-66
2021/06/21 09:10:49;;;;;;;;;;;21.90;70.00;;;;;;4993392;28;1352;-66
2021/06/21 09:13:16;;;;;;;;;;;21.90;70.00;;;;;;4993345;28;1147;-66
2021/06/21 09:15:51;;;;;;;;;;;21.80;69.90;;;;;;4992067;28;1128;-67
2021/06/21 09:18:35;;;;;;;;;;;21.90;70.00;;;;;;4999323;28;1143;-66
2021/06/21 09:21:19;;;;;;;;;;;21.80;70.00;;;;;;5016183;28;1266;-65
2021/06/21 09:23:45;;;;;;;;;;;21.90;70.10;;;;;;4992943;28;1903;-66
2021/06/21 09:26:14;;;;;;;;;;;21.90;70.10;;;;;;4993473;28;1092;-67
2021/06/21 09:28:39;;;;;;;;;;;21.90;70.00;;;;;;5003741;28;1095;-66
2021/06/21 09:31:05;;;;;;;;;;;21.80;70.00;;;;;;4993870;28;1277;-65
2021/06/21 09:33:30;;;;;;;;;;;21.90;70.10;;;;;;4992057;28;1092;-66
2021/06/21 09:35:56;;;;;;;;;;;21.80;70.00;;;;;;4994245;28;1256;-65
2021/06/21 09:38:21;;;;;;;;;;;21.80;70.00;;;;;;4992423;28;1093;-66
2021/06/21 09:40:50;;;;;;;;;;;21.80;70.00;;;;;;4993875;28;1295;-66
2021/06/21 09:43:23;;;;;;;;;;;21.80;70.10;;;;;;4991967;28;1959;-65
2021/06/21 09:46:00;;;;;;;;;;;21.80;70.10;;;;;;4993913;28;1100;-66
2021/06/21 09:48:30;;;;;;;;;;;21.80;69.90;;;;;;4993448;28;1088;-66
2021/06/21 09:50:55;;;;;;;;;;;21.90;70.00;;;;;;4993662;28;1217;-66
2021/06/21 09:53:22;;;;;;;;;;;21.90;70.00;;;;;;4993412;28;1032;-66
2021/06/21 09:55:47;;;;;;;;;;;21.90;70.10;;;;;;4992604;28;1108;-66
2021/06/21 09:58:14;;;;;;;;;;;21.90;70.00;;;;;;4993401;28;1096;-66
2021/06/21 10:00:43;;;;;;;;;;;21.90;70.00;;;;;;4999465;28;1387;-66
2021/06/21 10:03:18;;;;;;;;;;;21.90;70.10;;;;;;4998753;28;1968;-66
2021/06/21 10:05:45;;;;;;;;;;;21.90;70.00;;;;;;4992403;28;1057;-66
2021/06/21 10:08:11;;;;;;;;;;;21.90;70.00;;;;;;4993495;28;1040;-66
2021/06/21 10:10:37;;;;;;;;;;;21.90;70.00;;;;;;4993208;28;1363;-66
2021/06/21 10:13:03;;;;;;;;;;;21.90;70.10;;;;;;4992975;28;1077;-67
2021/06/21 10:15:28;;;;;;;;;;;21.90;70.80;;;;;;4993338;28;1246;-67
2021/06/21 10:17:54;;;;;;;;;;;21.90;70.10;;;;;;5010365;28;1112;-67
2021/06/21 10:20:19;;;;;;;;;;;21.90;70.10;;;;;;5014319;28;1205;-66
2021/06/21 10:22:45;;;;;;;;;;;21.90;70.10;;;;;;4999028;28;1103;-67
2021/06/21 10:25:10;;;;;;;;;;;21.90;70.10;;;;;;4993021;28;1966;-66
2021/06/21 10:27:40;;;;;;;;;;;21.90;70.00;;;;;;5000473;28;1171;-66
2021/06/21 10:30:10;;;;;;;;;;;21.90;71.80;;;;;;4996106;28;1255;-66
2021/06/21 10:32:35;;;;;;;;;;;21.90;71.60;;;;;;4997743;28;1108;-67
2021/06/21 10:35:00;;;;;;;;;;;21.90;71.30;;;;;;4997151;28;1171;-67
2021/06/21 10:37:27;;;;;;;;;;;21.90;71.40;;;;;;4996822;28;1092;-66
2021/06/21 10:39:53;;;;;;;;;;;21.90;71.00;;;;;;4996179;28;1360;-66
2021/06/21 10:42:20;;;;;;;;;;;21.90;71.00;;;;;;4996619;28;1075;-66
2021/06/21 10:44:45;;;;;;;;;;;21.90;71.30;;;;;;4996924;28;1906;-67
2021/06/21 10:47:24;;;;;;;;;;;21.90;71.50;;;;;;4996804;28;1194;-66
2021/06/21 10:49:56;;;;;;;;;;;22.00;71.40;;;;;;4995972;28;1288;-66
2021/06/21 10:52:30;;;;;;;;;;;22.00;71.40;;;;;;4995504;28;1302;-66
2021/06/21 10:55:14;;;;;;;;;;;22.00;72.10;;;;;;4996850;28;1107;-67
2021/06/21 10:57:40;;;;;;;;;;;22.00;71.60;;;;;;4996539;28;1068;-66
2021/06/21 11:00:15;;;;;;;;;;;22.00;71.00;;;;;;5003679;28;2037;-67
2021/06/21 11:02:40;;;;;;;;;;;22.00;70.90;;;;;;5024440;28;1207;-66
2021/06/21 11:05:06;;;;;;;;;;;22.00;70.90;;;;;;5025648;28;1902;-67
2021/06/21 11:07:32;;;;;;;;;;;22.00;70.90;;;;;;5008172;28;1122;-67
2021/06/21 11:09:58;;;;;;;;;;;22.00;71.00;;;;;;4996514;28;1292;-67
2021/06/21 11:12:30;;;;;;;;;;;22.00;71.00;;;;;;4996601;28;1185;-67
2021/06/21 11:15:11;;;;;;;;;;;22.00;70.90;;;;;;4995890;28;1238;-67
2021/06/21 11:17:42;;;;;;;;;;;21.90;70.90;;;;;;5010828;28;1045;-67
2021/06/21 11:20:26;;;;;;;;;;;21.90;70.90;;;;;;5017485;28;1479;-70
2021/06/21 11:22:54;;;;;;;;;;;21.90;70.80;;;;;;4999459;28;1111;-67
2021/06/21 11:25:20;;;;;;;;;;;22.00;70.80;;;;;;4996133;28;1906;-67
2021/06/21 11:27:45;;;;;;;;;;;21.90;70.80;;;;;;5004158;28;1116;-66
2021/06/21 11:30:20;;;;;;;;;;;21.90;70.70;;;;;;4996051;28;1367;-67
2021/06/21 11:32:53;;;;;;;;;;;21.90;70.70;;;;;;4995647;28;1187;-67
2021/06/21 11:35:39;;;;;;;;;;;21.90;70.70;;;;;;4996474;28;1064;-67
2021/06/21 11:38:20;;;;;;;;;;;21.90;70.60;;;;;;4999529;28;1800;-67
2021/06/21 11:40:46;;;;;;;;;;;21.90;70.70;;;;;;5018375;28;1273;-68
2021/06/21 11:43:11;;;;;;;;;;;21.90;70.70;;;;;;5018954;28;1957;-67
2021/06/21 11:45:47;;;;;;;;;;;21.90;70.60;;;;;;5002254;28;1197;-67
2021/06/21 11:48:32;;;;;;;;;;;21.90;70.60;;;;;;5019766;28;2365;-67
2021/06/21 11:50:59;;;;;;;;;;;21.90;70.60;;;;;;5018873;28;1338;-67
2021/06/21 11:53:25;;;;;;;;;;;21.90;70.60;;;;;;5019965;28;1098;-65
2021/06/21 11:55:50;;;;;;;;;;;21.90;70.50;;;;;;5018335;28;1322;-67
2021/06/21 11:58:22;;;;;;;;;;;21.90;70.60;;;;;;5019368;28;1984;-67
2021/06/21 12:00:48;;;;;;;;;;;22.00;71.00;;;;;;5012179;28;1337;-67
2021/06/21 12:03:13;;;;;;;;;;;21.90;70.70;;;;;;5015316;28;1902;-67
2021/06/21 12:05:38;;;;;;;;;;;21.90;70.80;;;;;;5009853;28;1120;-67
2021/06/21 12:08:13;;;;;;;;;;;21.90;70.80;;;;;;5015106;28;1088;-67
2021/06/21 12:10:39;;;;;;;;;;;21.90;71.10;;;;;;5008105;28;1227;-68
2021/06/21 12:13:04;;;;;;;;;;;22.00;72.30;;;;;;4995258;28;1072;-66
2021/06/21 12:15:31;;;;;;;;;;;22.00;72.30;;;;;;4995395;28;1213;-68
2021/06/21 12:17:57;;;;;;;;;;;22.00;72.10;;;;;;5012451;28;1084;-68
2021/06/21 12:20:22;;;;;;;;;;;22.00;71.90;;;;;;5016759;28;1298;-68
2021/06/21 12:22:56;;;;;;;;;;;22.00;71.50;;;;;;5010896;28;1161;-65
2021/06/21 12:25:23;;;;;;;;;;;21.90;71.20;;;;;;4995352;28;1965;-67
2021/06/21 12:27:49;;;;;;;;;;;21.90;71.30;;;;;;5002439;28;1196;-67
2021/06/21 12:30:14;;;;;;;;;;;22.00;71.40;;;;;;4995204;28;1280;-67
2021/06/21 12:32:40;;;;;;;;;;;21.90;71.20;;;;;;5011851;28;1195;-67
2021/06/21 12:35:07;;;;;;;;;;;22.00;71.20;;;;;;5002792;28;1151;-67
2021/06/21 12:37:34;;;;;;;;;;;22.00;71.20;;;;;;4994705;28;1195;-68
2021/06/21 12:40:16;;;;;;;;;;;22.00;71.40;;;;;;4993679;28;1332;-67
2021/06/21 12:42:41;;;;;;;;;;;22.00;71.60;;;;;;4993452;28;1139;-67
2021/06/21 12:45:11;;;;;;;;;;;22.00;71.60;;;;;;4993263;28;2304;-68
2021/06/21 12:47:41;;;;;;;;;;;22.00;72.20;;;;;;4994849;28;1080;-66
2021/06/21 12:50:07;;;;;;;;;;;22.00;71.30;;;;;;4994637;28;1453;-67
2021/06/21 12:52:32;;;;;;;;;;;22.00;71.30;;;;;;4993936;28;1135;-68
2021/06/21 12:55:05;;;;;;;;;;;22.00;71.40;;;;;;4993237;28;1065;-67
2021/06/21 12:57:46;;;;;;;;;;;22.00;71.30;;;;;;4994860;28;1123;-67
2021/06/21 13:00:12;;;;;;;;;;;22.00;71.40;;;;;;5004770;28;1605;-67
2021/06/21 13:02:37;;;;;;;;;;;22.00;71.50;;;;;;4998741;28;1119;-66
2021/06/21 13:05:10;;;;;;;;;;;22.00;71.40;;;;;;5008564;28;1970;-67
2021/06/21 13:07:36;;;;;;;;;;;22.00;71.40;;;;;;5001127;28;1107;-67
2021/06/21 13:10:01;;;;;;;;;;;22.00;71.60;;;;;;4993544;28;1293;-66
2021/06/21 13:12:30;;;;;;;;;;;22.00;71.40;;;;;;4993878;28;1076;-68
2021/06/21 13:15:05;;;;;;;;;;;22.00;71.50;;;;;;4991856;28;1179;-66
2021/06/21 13:17:30;;;;;;;;;;;22.00;71.50;;;;;;5008119;28;1119;-67
2021/06/21 13:20:00;;;;;;;;;;;22.00;71.80;;;;;;5012426;28;1268;-66
2021/06/21 13:22:26;;;;;;;;;;;22.00;71.60;;;;;;4994214;28;1084;-67
2021/06/21 13:24:52;;;;;;;;;;;22.00;71.50;;;;;;4992097;28;1974;-65
2021/06/21 13:27:25;;;;;;;;;;;22.00;71.60;;;;;;5002739;28;1128;-67
2021/06/21 13:29:51;;;;;;;;;;;22.00;71.70;;;;;;5009154;28;2181;-65
2021/06/21 13:32:21;;;;;;;;;;;22.00;71.80;;;;;;5015356;28;1231;-66
2021/06/21 13:34:48;;;;;;;;;;;22.00;71.70;;;;;;5015242;28;1585;-66
2021/06/21 13:37:20;;;;;;;;;;;22.00;71.60;;;;;;5006918;28;1072;-67
2021/06/21 13:40:12;;;;;;;;;;;22.00;71.70;;;;;;4992496;28;1080;-67
2021/06/21 13:42:38;;;;;;;;;;;22.00;71.70;;;;;;4991916;28;1164;-66
2021/06/21 13:45:23;;;;;;;;;;;22.00;72.00;;;;;;4993568;28;1907;-67
2021/06/21 13:47:53;;;;;;;;;;;22.00;71.90;;;;;;4993207;28;1072;-67
2021/06/21 13:52:47;;;;;;;;;;;22.20;72.00;;;;;;5041722;28;1573;-71
2021/06/21 13:55:13;;;;;;;;;;;22.20;71.90;;;;;;5036100;28;1672;-69
2021/06/21 13:57:40;;;;;;;;;;;22.30;71.60;;;;;;5050043;28;1465;-74
2021/06/21 14:00:07;;;;;;;;;;;22.30;71.20;;;;;;5052034;28;1143;-73
2021/06/21 14:02:33;;;;;;;;;;;22.30;71.10;;;;;;5052128;28;1656;-71
2021/06/21 14:04:58;;;;;;;;;;;22.30;71.10;;;;;;5051929;28;1969;-70
2021/06/21 14:07:23;;;;;;;;;;;22.20;71.30;;;;;;5051724;28;1087;-70
2021/06/21 14:09:53;;;;;;;;;;;22.20;71.50;;;;;;5034507;28;1072;-70
2021/06/21 14:12:18;;;;;;;;;;;22.20;71.60;;;;;;5049463;28;1930;-70
2021/06/21 14:14:44;;;;;;;;;;;22.20;71.80;;;;;;5048655;28;1061;-70
2021/06/21 14:17:09;;;;;;;;;;;22.20;71.90;;;;;;5047115;28;1033;-72
2021/06/21 14:19:35;;;;;;;;;;;22.20;72.00;;;;;;5052152;28;1051;-72
2021/06/21 14:22:00;;;;;;;;;;;22.20;71.80;;;;;;5052622;28;1303;-72
2021/06/21 14:24:26;;;;;;;;;;;22.20;72.70;;;;;;5049059;28;1964;-72
2021/06/21 14:26:53;;;;;;;;;;;22.10;71.90;;;;;;5051333;28;1130;-72
2021/06/21 14:29:18;;;;;;;;;;;22.20;72.00;;;;;;5052383;28;1126;-72
2021/06/21 14:31:44;;;;;;;;;;;22.10;72.00;;;;;;5052249;28;1279;-72
2021/06/21 14:34:09;;;;;;;;;;;22.10;71.90;;;;;;5052270;28;1241;-71